createdAt,value
2019-01-19T00:00:32.257Z,18.93
2019-01-19T00:03:28.195Z,18.63
2019-01-19T00:06:43.107Z,17.77
2019-01-19T00:09:21.113Z,17.97
2019-01-19T00:12:42.011Z,18.80
2019-01-19T00:15:33.987Z,16.83
2019-01-19T00:18:38.033Z,18.33
2019-01-19T00:21:42.729Z,17.93
2019-01-19T00:24:33.733Z,18.20
2019-01-19T00:27:26.684Z,17.23
2019-01-19T00:30:40.360Z,17.23
2019-01-19T00:33:19.241Z,19.33
2019-01-19T00:36:14.190Z,18.40
2019-01-19T00:39:20.891Z,17.67
2019-01-19T00:42:17.970Z,17.27
2019-01-19T00:45:30.446Z,19.70
2019-01-19T00:48:27.434Z,18.23
2019-01-19T00:51:42.702Z,18.80
2019-01-19T00:54:49.499Z,19.07
2019-01-19T00:58:02.062Z,19.40
2019-01-19T01:00:46.106Z,18.90
2019-01-19T01:03:38.310Z,19.43
2019-01-19T01:06:53.743Z,18.80
2019-01-19T01:09:50.731Z,18.37
2019-01-19T01:13:16.547Z,16.23
2019-01-19T01:16:15.590Z,17.37
2019-01-19T01:19:07.654Z,17.40
2019-01-19T01:22:26.687Z,17.13
2019-01-19T01:25:42.138Z,16.97
2019-01-19T01:28:37.453Z,17.50
2019-01-19T01:31:57.819Z,17.30
2019-01-19T01:35:08.541Z,16.40
2019-01-19T01:38:02.066Z,16.53
2019-01-19T01:41:13.024Z,17.10
2019-01-19T01:44:18.264Z,16.37
2019-01-19T01:47:30.852Z,15.47
2019-01-19T01:50:34.452Z,16.53
2019-01-19T01:53:39.563Z,17.40
2019-01-19T01:56:16.326Z,19.00
2019-01-19T01:59:32.459Z,18.70
2019-01-19T02:02:35.976Z,18.30
2019-01-19T02:05:55.851Z,16.83
2019-01-19T02:08:50.204Z,18.30
2019-01-19T02:11:40.892Z,16.93
2019-01-19T02:14:21.730Z,17.73
2019-01-19T02:17:17.871Z,16.43
2019-01-19T02:20:23.713Z,18.13
2019-01-19T02:23:46.562Z,18.83
2019-01-19T02:26:40.015Z,17.70
2019-01-19T02:29:35.652Z,16.13
2019-01-19T02:32:39.715Z,16.67
2019-01-19T02:35:30.352Z,16.17
2019-01-19T02:38:40.594Z,16.57
2019-01-19T02:41:23.336Z,16.07
2019-01-19T02:44:30.651Z,18.10
2019-01-19T02:47:39.147Z,17.80
2019-01-19T02:50:32.466Z,16.43
2019-01-19T02:53:33.225Z,15.07
2019-01-19T02:56:23.861Z,15.73
2019-01-19T02:59:15.830Z,16.33
2019-01-19T03:02:04.004Z,16.73
2019-01-19T03:04:53.169Z,17.13
2019-01-19T03:08:09.026Z,16.30
2019-01-19T03:11:14.246Z,16.27
2019-01-19T03:14:23.565Z,16.60
2019-01-19T03:17:28.933Z,16.53
2019-01-19T03:20:36.290Z,15.27
2019-01-19T03:23:35.536Z,16.33
2019-01-19T03:26:53.542Z,16.30
2019-01-19T03:29:44.075Z,14.67
2019-01-19T03:33:07.343Z,15.50
2019-01-19T03:36:36.059Z,15.80
2019-01-19T03:39:28.989Z,17.13
2019-01-19T03:42:31.740Z,20.07
2019-01-19T03:45:36.121Z,25.70
2019-01-19T03:48:33.879Z,26.00
2019-01-19T03:51:46.537Z,28.40
2019-01-19T03:54:34.227Z,30.20
2019-01-19T03:57:47.929Z,33.53
2019-01-19T04:01:01.859Z,34.13
2019-01-19T04:04:24.121Z,30.07
2019-01-19T04:07:00.577Z,31.20
2019-01-19T04:10:02.281Z,32.07
2019-01-19T04:13:13.179Z,33.67
2019-01-19T04:16:26.452Z,32.67
2019-01-19T04:19:11.033Z,28.00
2019-01-19T04:21:53.046Z,29.27
2019-01-19T04:24:26.629Z,30.43
2019-01-19T04:26:57.869Z,32.07
2019-01-19T04:29:27.147Z,30.77
2019-01-19T04:31:56.423Z,29.70
2019-01-19T04:34:26.274Z,31.60
2019-01-19T04:36:55.717Z,32.37
2019-01-19T04:39:25.138Z,29.67
2019-01-19T04:41:54.288Z,30.23
2019-01-19T04:44:23.508Z,25.53
2019-01-19T04:46:53.046Z,23.70
2019-01-19T04:49:22.186Z,21.03
2019-01-19T04:51:51.364Z,21.70
2019-01-19T04:54:20.514Z,21.57
2019-01-19T04:56:50.040Z,20.57
2019-01-19T04:59:19.199Z,23.23
2019-01-19T05:01:48.347Z,24.83
2019-01-19T05:04:18.151Z,29.57
2019-01-19T05:06:47.368Z,29.03
2019-01-19T05:09:16.811Z,30.63
2019-01-19T05:11:45.970Z,28.53
2019-01-19T05:14:15.438Z,29.17
2019-01-19T05:16:45.444Z,29.60
2019-01-19T05:19:14.594Z,31.27
2019-01-19T05:21:43.734Z,30.57
2019-01-19T05:24:12.970Z,31.03
2019-01-19T05:26:42.168Z,31.23
2019-01-19T05:29:11.324Z,31.30
2019-01-19T05:31:40.465Z,32.10
2019-01-19T05:34:09.659Z,31.90
2019-01-19T05:36:38.888Z,32.03
2019-01-19T05:39:09.159Z,30.40
2019-01-19T05:41:38.747Z,30.03
2019-01-19T05:44:07.909Z,30.87
2019-01-19T05:46:37.447Z,30.83
2019-01-19T05:49:06.574Z,31.63
2019-01-19T05:51:35.802Z,31.33
2019-01-19T05:54:05.719Z,30.17
2019-01-19T05:56:34.900Z,28.63
2019-01-19T05:59:04.138Z,32.00
2019-01-19T06:01:33.690Z,30.37
2019-01-19T06:04:02.917Z,31.30
2019-01-19T06:06:32.071Z,32.00
2019-01-19T06:09:01.294Z,32.20
2019-01-19T06:11:30.776Z,31.00
2019-01-19T06:13:59.998Z,33.80
2019-01-19T06:16:29.169Z,30.33
2019-01-19T06:18:58.706Z,25.70
2019-01-19T06:21:31.548Z,23.60
2019-01-19T06:24:00.710Z,20.20
2019-01-19T06:26:30.057Z,20.73
2019-01-19T06:28:59.220Z,20.07
2019-01-19T06:31:28.649Z,28.33
2019-01-19T06:33:58.055Z,26.67
2019-01-19T06:36:27.535Z,28.90
2019-01-19T06:38:56.772Z,29.77
2019-01-19T06:41:26.167Z,31.47
2019-01-19T06:43:55.327Z,32.87
2019-01-19T06:46:24.598Z,33.10
2019-01-19T06:48:53.842Z,30.93
2019-01-19T06:51:23.060Z,32.27
2019-01-19T06:53:52.600Z,33.30
2019-01-19T06:56:25.091Z,32.30
2019-01-19T06:58:54.272Z,31.50
2019-01-19T07:01:23.786Z,28.53
2019-01-19T07:03:53.289Z,32.57
2019-01-19T07:06:26.259Z,29.43
2019-01-19T07:08:56.937Z,31.20
2019-01-19T07:11:26.149Z,31.50
2019-01-19T07:13:55.405Z,30.43
2019-01-19T07:16:24.672Z,30.30
2019-01-19T07:18:53.900Z,31.50
2019-01-19T07:21:23.251Z,28.60
2019-01-19T07:23:52.411Z,30.67
2019-01-19T07:26:21.605Z,32.43
2019-01-19T07:28:50.819Z,30.10
2019-01-19T07:31:20.024Z,30.07
2019-01-19T07:33:49.377Z,31.30
2019-01-19T07:36:18.916Z,30.10
2019-01-19T07:38:48.194Z,32.47
2019-01-19T07:41:17.442Z,30.23
2019-01-19T07:43:46.683Z,30.07
2019-01-19T07:46:16.336Z,27.77
2019-01-19T07:48:45.606Z,25.70
2019-01-19T07:51:15.585Z,25.63
2019-01-19T07:53:45.198Z,22.77
2019-01-19T07:56:14.795Z,23.70
2019-01-19T07:58:44.324Z,23.27
2019-01-19T08:01:13.642Z,22.87
2019-01-19T08:03:42.957Z,23.87
2019-01-19T08:06:12.140Z,25.87
2019-01-19T08:08:41.461Z,27.10
2019-01-19T08:11:11.366Z,26.80
2019-01-19T08:13:42.279Z,27.03
2019-01-19T08:16:11.987Z,27.03
2019-01-19T08:18:41.197Z,28.80
2019-01-19T08:21:10.375Z,28.03
2019-01-19T08:23:39.988Z,29.30
2019-01-19T08:26:09.573Z,28.27
2019-01-19T08:28:40.140Z,28.27
2019-01-19T08:31:09.399Z,27.77
2019-01-19T08:33:38.627Z,27.30
2019-01-19T08:36:07.869Z,29.30
2019-01-19T08:38:37.083Z,29.33
2019-01-19T08:41:06.613Z,25.63
2019-01-19T08:43:41.501Z,26.23
2019-01-19T08:46:10.678Z,24.30
2019-01-19T08:48:40.112Z,21.93
2019-01-19T08:51:09.562Z,21.47
2019-01-19T08:53:39.116Z,22.13
2019-01-19T08:56:08.795Z,21.33
2019-01-19T08:58:38.351Z,20.63
2019-01-19T09:01:07.859Z,20.97
2019-01-19T09:03:37.046Z,17.90
2019-01-19T09:06:06.725Z,18.40
2019-01-19T09:08:35.993Z,18.87
2019-01-19T09:11:05.530Z,19.33
2019-01-19T09:13:34.761Z,16.67
2019-01-19T09:16:11.263Z,15.30
2019-01-19T09:18:40.522Z,14.47
2019-01-19T09:21:09.927Z,14.60
2019-01-19T09:23:55.452Z,14.10
2019-01-19T09:26:24.708Z,14.27
2019-01-19T09:28:54.612Z,14.60
2019-01-19T09:31:24.100Z,14.30
2019-01-19T09:33:53.251Z,14.63
2019-01-19T09:36:23.019Z,14.47
2019-01-19T09:38:52.524Z,13.97
2019-01-19T09:41:22.689Z,14.53
2019-01-19T09:43:51.830Z,14.57
2019-01-19T09:46:21.169Z,15.23
2019-01-19T09:48:50.353Z,14.37
2019-01-19T09:51:19.754Z,13.80
2019-01-19T09:53:48.899Z,13.50
2019-01-19T09:56:18.642Z,14.70
2019-01-19T09:58:48.065Z,14.93
2019-01-19T10:01:17.276Z,14.87
2019-01-19T10:03:46.449Z,14.10
2019-01-19T10:06:15.594Z,14.20
2019-01-19T10:08:44.749Z,14.87
2019-01-19T10:11:14.569Z,15.00
2019-01-19T10:13:44.086Z,14.30
2019-01-19T10:16:13.248Z,14.03
2019-01-19T10:18:42.419Z,14.17
2019-01-19T10:21:11.647Z,13.43
2019-01-19T10:23:40.898Z,14.47
2019-01-19T10:26:10.167Z,14.97
2019-01-19T10:28:40.288Z,14.47
2019-01-19T10:31:09.463Z,13.50
2019-01-19T10:33:39.767Z,14.80
2019-01-19T10:36:09.037Z,15.20
2019-01-19T10:38:38.264Z,16.73
2019-01-19T10:41:07.427Z,14.17
2019-01-19T10:43:36.669Z,15.30
2019-01-19T10:46:05.832Z,24.73
2019-01-19T10:48:35.335Z,12.07
2019-01-19T10:51:04.966Z,12.77
2019-01-19T10:53:34.452Z,10.37
2019-01-19T10:56:03.617Z,10.10
2019-01-19T10:58:32.805Z,10.77
2019-01-19T11:01:02.213Z,10.33
2019-01-19T11:03:31.387Z,9.07
2019-01-19T11:06:00.539Z,9.77
2019-01-19T11:08:30.388Z,9.57
2019-01-19T11:10:59.547Z,9.97
2019-01-19T11:13:29.364Z,9.03
2019-01-19T11:15:58.628Z,9.23
2019-01-19T11:18:31.362Z,10.00
2019-01-19T11:21:00.733Z,10.10
2019-01-19T11:23:39.727Z,10.33
2019-01-19T11:26:05.921Z,9.63
2019-01-19T11:28:35.365Z,9.60
2019-01-19T11:31:04.913Z,8.93
2019-01-19T11:33:34.067Z,9.73
2019-01-19T11:36:03.285Z,9.10
2019-01-19T11:38:32.433Z,10.13
2019-01-19T11:41:01.602Z,8.80
2019-01-19T11:43:30.870Z,9.30
2019-01-19T11:46:00.138Z,9.13
2019-01-19T11:48:29.317Z,8.93
2019-01-19T11:50:58.475Z,9.03
2019-01-19T11:53:27.842Z,9.10
2019-01-19T11:55:56.992Z,9.27
2019-01-19T11:58:26.503Z,9.97
2019-01-19T12:00:55.788Z,9.07
2019-01-19T12:03:25.019Z,9.60
2019-01-19T12:05:55.307Z,9.67
2019-01-19T12:08:24.590Z,9.37
2019-01-19T12:10:54.216Z,9.87
2019-01-19T12:13:23.409Z,9.50
2019-01-19T12:15:52.998Z,9.37
2019-01-19T12:18:22.218Z,9.87
2019-01-19T12:20:52.316Z,10.23
2019-01-19T12:23:21.624Z,10.27
2019-01-19T12:25:51.752Z,10.27
2019-01-19T12:28:21.444Z,10.60
2019-01-19T12:30:51.515Z,10.23
2019-01-19T12:33:21.275Z,9.80
2019-01-19T12:35:50.862Z,10.40
2019-01-19T12:38:26.801Z,10.03
2019-01-19T12:40:51.836Z,10.50
2019-01-19T12:43:22.742Z,10.10
2019-01-19T12:45:57.806Z,10.20
2019-01-19T12:48:26.977Z,10.13
2019-01-19T12:50:56.225Z,9.80
2019-01-19T12:53:26.347Z,10.73
2019-01-19T12:55:55.506Z,9.97
2019-01-19T12:58:24.829Z,9.90
2019-01-19T13:00:54.281Z,9.87
2019-01-19T13:03:23.423Z,9.70
2019-01-19T13:06:24.830Z,10.40
2019-01-19T13:08:54.050Z,9.73
2019-01-19T13:11:45.829Z,9.90
2019-01-19T13:14:15.045Z,10.30
2019-01-19T13:17:21.131Z,10.20
2019-01-19T13:20:21.306Z,10.00
2019-01-19T13:23:26.330Z,10.30
2019-01-19T13:26:42.173Z,8.90
2019-01-19T13:29:45.972Z,9.63
2019-01-19T13:32:50.674Z,9.63
2019-01-19T13:35:56.504Z,9.43
2019-01-19T13:39:15.695Z,9.33
2019-01-19T13:42:40.260Z,9.33
2019-01-19T13:45:42.611Z,9.37
2019-01-19T13:48:45.161Z,9.20
2019-01-19T13:51:51.438Z,10.03
2019-01-19T13:54:52.658Z,9.50
2019-01-19T13:58:04.079Z,9.77
2019-01-19T14:00:48.967Z,10.17
2019-01-19T14:04:00.676Z,10.77
2019-01-19T14:07:03.062Z,10.97
2019-01-19T14:10:02.017Z,10.70
2019-01-19T14:13:06.975Z,11.07
2019-01-19T14:15:57.283Z,10.13
2019-01-19T14:19:14.266Z,9.70
2019-01-19T14:22:43.041Z,9.83
2019-01-19T14:25:35.630Z,9.70
2019-01-19T14:28:43.186Z,9.70
2019-01-19T14:31:52.766Z,10.23
2019-01-19T14:34:50.512Z,10.90
2019-01-19T14:37:42.133Z,11.73
2019-01-19T14:40:36.856Z,12.63
2019-01-19T14:43:38.573Z,12.20
2019-01-19T14:46:34.015Z,11.87
2019-01-19T14:49:50.844Z,11.43
2019-01-19T14:52:31.596Z,12.27
2019-01-19T14:55:11.860Z,12.30
2019-01-19T14:58:25.743Z,12.20
2019-01-19T15:01:14.375Z,12.70
2019-01-19T15:04:06.606Z,14.40
2019-01-19T15:07:21.690Z,16.63
2019-01-19T15:10:59.234Z,19.33
2019-01-19T15:14:22.364Z,15.93
2019-01-19T15:17:38.596Z,15.20
2019-01-19T15:20:51.815Z,15.47
2019-01-19T15:23:36.941Z,17.53
2019-01-19T15:26:50.733Z,15.90
2019-01-19T15:29:57.822Z,22.00
2019-01-19T15:33:02.234Z,49.70
2019-01-19T15:36:16.076Z,18.10
2019-01-19T15:39:12.537Z,14.20
2019-01-19T15:42:14.522Z,14.50
2019-01-19T15:45:33.287Z,13.57
2019-01-19T15:48:24.303Z,13.60
2019-01-19T15:51:23.096Z,13.27
2019-01-19T15:54:10.622Z,13.37
2019-01-19T15:57:22.962Z,12.70
2019-01-19T16:00:39.254Z,13.40
2019-01-19T16:03:34.915Z,13.87
2019-01-19T16:07:03.274Z,13.33
2019-01-19T16:10:12.597Z,14.27
2019-01-19T16:13:21.507Z,14.50
2019-01-19T16:16:29.001Z,15.23
2019-01-19T16:19:36.982Z,15.00
2019-01-19T16:22:59.535Z,16.00
2019-01-19T16:25:59.320Z,16.30
2019-01-19T16:28:48.595Z,14.20
2019-01-19T16:31:50.245Z,16.07
2019-01-19T16:34:43.654Z,15.07
2019-01-19T16:37:51.438Z,16.57
2019-01-19T16:40:51.322Z,14.87
2019-01-19T16:43:32.831Z,16.67
2019-01-19T16:46:49.363Z,16.20
2019-01-19T16:50:00.707Z,15.07
2019-01-19T16:53:00.840Z,16.67
2019-01-19T16:56:02.272Z,19.70
2019-01-19T16:59:07.560Z,19.13
2019-01-19T17:02:21.873Z,18.13
2019-01-19T17:05:22.256Z,17.47
2019-01-19T17:08:30.920Z,16.47
2019-01-19T17:11:38.489Z,15.67
2019-01-19T17:14:58.443Z,15.33
2019-01-19T17:17:59.755Z,16.67
2019-01-19T17:21:31.665Z,16.30
2019-01-19T17:24:19.921Z,15.40
2019-01-19T17:27:41.169Z,16.70
2019-01-19T17:30:43.761Z,17.17
2019-01-19T17:33:49.152Z,17.40
2019-01-19T17:36:50.403Z,17.70
2019-01-19T17:40:22.393Z,17.23
2019-01-19T17:43:25.916Z,16.87
2019-01-19T17:46:40.753Z,17.20
2019-01-19T17:49:30.997Z,15.97
2019-01-19T17:52:50.521Z,17.07
2019-01-19T17:55:48.839Z,16.40
2019-01-19T17:59:12.424Z,17.60
2019-01-19T18:02:21.606Z,17.10
2019-01-19T18:05:05.142Z,18.40
2019-01-19T18:08:13.511Z,19.63
2019-01-19T18:11:20.968Z,18.77
2019-01-19T18:14:18.587Z,18.97
2019-01-19T18:17:40.913Z,18.07
2019-01-19T18:21:06.178Z,19.53
2019-01-19T18:23:56.777Z,19.27
2019-01-19T18:26:38.680Z,19.77
2019-01-19T18:29:57.757Z,19.20
2019-01-19T18:32:51.587Z,19.17
2019-01-19T18:35:38.146Z,19.53
2019-01-19T18:38:36.929Z,19.27
2019-01-19T18:41:25.935Z,19.17
2019-01-19T18:44:36.136Z,19.90
2019-01-19T18:47:27.187Z,19.73
2019-01-19T18:50:24.554Z,20.30
2019-01-19T18:53:02.494Z,19.57
2019-01-19T18:55:57.976Z,19.40
2019-01-19T18:58:39.977Z,20.40
2019-01-19T19:01:49.916Z,20.40
2019-01-19T19:04:50.207Z,20.23
2019-01-19T19:08:09.699Z,20.70
2019-01-19T19:10:55.550Z,21.53
2019-01-19T19:13:47.743Z,21.03
2019-01-19T19:16:48.555Z,21.57
2019-01-19T19:19:58.168Z,20.53
2019-01-19T19:23:04.498Z,21.40
2019-01-19T19:25:51.972Z,22.43
2019-01-19T19:28:59.720Z,22.47
2019-01-19T19:32:22.227Z,21.03
2019-01-19T19:35:43.820Z,20.13
2019-01-19T19:38:54.619Z,20.03
2019-01-19T19:42:18.830Z,19.93
2019-01-19T19:45:24.210Z,21.20
2019-01-19T19:48:42.013Z,20.07
2019-01-19T19:52:00.845Z,20.37
2019-01-19T19:54:31.894Z,22.07
2019-01-19T19:57:01.898Z,25.07
2019-01-19T19:59:31.418Z,23.37
2019-01-19T20:02:00.609Z,24.13
2019-01-19T20:04:29.896Z,24.97
2019-01-19T20:07:00.026Z,24.30
2019-01-19T20:09:29.628Z,25.87
2019-01-19T20:12:07.361Z,24.93
2019-01-19T20:14:36.878Z,23.17
2019-01-19T20:17:07.137Z,22.10
2019-01-19T20:19:36.605Z,22.47
2019-01-19T20:22:05.921Z,24.80
2019-01-19T20:24:35.555Z,24.13
2019-01-19T20:27:04.966Z,22.27
2019-01-19T20:29:34.166Z,24.73
2019-01-19T20:32:03.906Z,23.03
2019-01-19T20:34:33.430Z,23.07
2019-01-19T20:37:02.675Z,23.53
2019-01-19T20:39:32.585Z,22.20
2019-01-19T20:42:02.093Z,22.30
2019-01-19T20:44:31.270Z,23.20
2019-01-19T20:47:00.813Z,23.33
2019-01-19T20:49:30.059Z,23.07
2019-01-19T20:51:59.231Z,22.70
2019-01-19T20:54:28.392Z,24.43
2019-01-19T20:56:57.660Z,23.10
2019-01-19T20:59:26.903Z,24.53
2019-01-19T21:01:56.492Z,25.03
2019-01-19T21:04:26.000Z,25.43
2019-01-19T21:06:55.527Z,24.83
2019-01-19T21:09:24.700Z,25.40
2019-01-19T21:11:53.891Z,26.53
2019-01-19T21:14:23.584Z,26.80
2019-01-19T21:16:52.806Z,26.00
2019-01-19T21:19:22.001Z,27.23
2019-01-19T21:21:51.247Z,27.20
2019-01-19T21:24:21.018Z,28.57
2019-01-19T21:26:50.839Z,26.83
2019-01-19T21:29:20.169Z,26.73
2019-01-19T21:31:49.464Z,26.90
2019-01-19T21:34:18.786Z,27.27
2019-01-19T21:36:48.330Z,27.63
2019-01-19T21:39:17.508Z,26.57
2019-01-19T21:41:47.003Z,25.73
2019-01-19T21:44:16.532Z,25.80
2019-01-19T21:46:46.009Z,25.40
2019-01-19T21:49:15.221Z,25.73
2019-01-19T21:51:44.442Z,26.43
2019-01-19T21:54:13.715Z,25.67
2019-01-19T21:56:42.881Z,25.60
2019-01-19T21:59:12.127Z,26.20
2019-01-19T22:01:41.385Z,25.20
2019-01-19T22:04:10.936Z,26.77
2019-01-19T22:06:40.731Z,25.77
2019-01-19T22:09:10.578Z,25.00
2019-01-19T22:11:39.740Z,26.73
2019-01-19T22:14:09.249Z,25.87
2019-01-19T22:16:38.476Z,26.40
2019-01-19T22:19:08.318Z,26.00
2019-01-19T22:21:37.561Z,24.57
2019-01-19T22:24:07.066Z,23.67
2019-01-19T22:26:36.821Z,24.90
2019-01-19T22:29:05.986Z,25.63
2019-01-19T22:31:35.172Z,24.73
2019-01-19T22:34:05.029Z,23.43
2019-01-19T22:36:34.590Z,25.43
2019-01-19T22:39:05.381Z,25.57
2019-01-19T22:41:34.641Z,24.20
2019-01-19T22:44:03.983Z,26.23
2019-01-19T22:46:33.569Z,27.00
2019-01-19T22:49:02.807Z,25.17
2019-01-19T22:51:32.429Z,24.97
2019-01-19T22:54:01.674Z,24.00
2019-01-19T22:56:30.924Z,24.37
2019-01-19T22:59:00.400Z,23.63
2019-01-19T23:01:51.670Z,22.43
2019-01-19T23:04:20.835Z,24.97
2019-01-19T23:06:50.010Z,24.20
2019-01-19T23:09:19.249Z,23.30
2019-01-19T23:11:48.441Z,22.97
2019-01-19T23:14:17.663Z,23.03
2019-01-19T23:16:47.274Z,23.10
2019-01-19T23:19:16.505Z,23.53
2019-01-19T23:21:45.715Z,23.13
2019-01-19T23:24:14.877Z,23.43
2019-01-19T23:26:44.788Z,24.23
2019-01-19T23:29:13.952Z,24.17
2019-01-19T23:31:43.536Z,23.70
2019-01-19T23:34:12.692Z,23.77
2019-01-19T23:36:41.867Z,23.33
2019-01-19T23:39:11.295Z,24.43
2019-01-19T23:41:40.465Z,23.90
2019-01-19T23:44:09.681Z,24.20
2019-01-19T23:46:38.857Z,23.20
2019-01-19T23:49:08.025Z,24.83
2019-01-19T23:51:37.228Z,24.43
2019-01-19T23:54:06.400Z,24.50
2019-01-19T23:56:35.591Z,24.17
2019-01-19T23:59:04.759Z,26.47
